Time;durP1;ratioP1;P1;durP2;ratioP2;P2;SDS_P1;SDS_P2;PMS_P1;PMS_P2;Temp;Humidity;BMP_temperature;BMP_pressure;BME280_temperature;BME280_humidity;BME280_pressure;Samples;Min_cycle;Max_cycle;Signal;HPM_P1;HPM_P2
2021/07/12 00:00:24;;;;;;;4.17;3.77;;;25.50;55.80;;;;;;5009084;28;20587;-66
2021/07/12 00:02:51;;;;;;;6.20;3.87;;;25.40;55.70;;;;;;5005379;28;20195;-66
2021/07/12 00:05:18;;;;;;;5.23;4.10;;;25.40;55.80;;;;;;5009120;28;20724;-66
2021/07/12 00:07:46;;;;;;;3.70;3.40;;;25.40;55.80;;;;;;4996331;28;20237;-66
2021/07/12 00:10:16;;;;;;;4.80;3.80;;;25.40;55.80;;;;;;5005462;28;20205;-67
2021/07/12 00:12:47;;;;;;;4.80;3.60;;;25.40;55.80;;;;;;4997981;28;20217;-67
2021/07/12 00:15:16;;;;;;;4.37;3.70;;;25.40;55.90;;;;;;5003359;28;20201;-67
2021/07/12 00:17:44;;;;;;;4.73;3.53;;;25.40;55.90;;;;;;5000593;28;20621;-66
2021/07/12 00:20:12;;;;;;;4.07;3.63;;;25.40;55.90;;;;;;5009301;28;20245;-66
2021/07/12 00:22:40;;;;;;;4.07;3.67;;;25.40;56.00;;;;;;5008665;28;20204;-66
2021/07/12 00:25:09;;;;;;;4.00;3.60;;;25.30;56.00;;;;;;5011193;28;20213;-67
2021/07/12 00:27:36;;;;;;;4.13;3.60;;;25.30;56.00;;;;;;5007849;28;20218;-66
2021/07/12 00:30:10;;;;;;;5.60;3.27;;;25.30;56.00;;;;;;4998430;28;20226;-66
2021/07/12 00:32:37;;;;;;;3.93;3.63;;;25.30;56.00;;;;;;5009181;28;20203;-67
2021/07/12 00:35:10;;;;;;;3.93;3.10;;;25.30;56.00;;;;;;5003764;28;20211;-66
2021/07/12 00:37:40;;;;;;;3.63;3.33;;;25.20;55.90;;;;;;5008589;28;20231;-66
2021/07/12 00:40:11;;;;;;;5.57;3.50;;;25.20;55.90;;;;;;4993718;28;20210;-66
2021/07/12 00:42:39;;;;;;;3.60;3.40;;;25.20;56.00;;;;;;5007431;28;20218;-66
2021/07/12 00:45:13;;;;;;;4.97;3.53;;;25.20;56.00;;;;;;5005678;28;20226;-66
2021/07/12 00:47:43;;;;;;;3.87;3.57;;;25.20;56.10;;;;;;5009133;28;20226;-66
2021/07/12 00:50:11;;;;;;;3.53;3.23;;;25.20;56.10;;;;;;5008422;28;20211;-66
2021/07/12 00:52:40;;;;;;;5.63;3.60;;;25.20;56.10;;;;;;5008634;28;20210;-67
2021/07/12 00:55:24;;;;;;;4.17;3.70;;;25.20;56.10;;;;;;5011770;28;20194;-66
2021/07/12 00:57:51;;;;;;;3.50;3.20;;;25.20;56.10;;;;;;5004410;28;20196;-66
2021/07/12 01:00:23;;;;;;;4.37;3.50;;;25.10;56.00;;;;;;5001372;28;20645;-66
2021/07/12 01:02:50;;;;;;;4.00;3.60;;;25.20;56.10;;;;;;4993035;28;20640;-67
2021/07/12 01:05:20;;;;;;;4.20;3.57;;;25.10;56.00;;;;;;5008170;28;20228;-67
2021/07/12 01:07:47;;;;;;;3.50;3.20;;;25.20;56.10;;;;;;5010789;28;20241;-67
2021/07/12 01:10:17;;;;;;;3.83;3.43;;;25.10;56.00;;;;;;5005178;28;20226;-67
2021/07/12 01:13:06;;;;;;;4.10;3.70;;;25.10;56.00;;;;;;5004411;28;20218;-66
2021/07/12 01:15:48;;;;;;;3.80;3.43;;;25.10;56.00;;;;;;5009268;28;20202;-66
2021/07/12 01:18:40;;;;;;;4.83;3.53;;;25.10;56.00;;;;;;4996754;28;20214;-66
2021/07/12 01:22:08;;;;;;;4.30;3.90;;;25.10;56.00;;;;;;5005040;28;20243;-66
2021/07/12 01:25:02;;;;;;;4.17;3.70;;;25.10;56.10;;;;;;5010490;28;20217;-67
2021/07/12 01:27:35;;;;;;;3.67;3.33;;;25.10;56.10;;;;;;5003843;28;20232;-66
2021/07/12 01:30:18;;;;;;;3.97;3.67;;;25.00;56.00;;;;;;5004752;28;20222;-66
2021/07/12 01:32:58;;;;;;;5.23;3.87;;;25.10;56.00;;;;;;5008979;28;20227;-66
2021/07/12 01:36:05;;;;;;;5.23;3.80;;;25.00;56.00;;;;;;5009629;28;20199;-66
2021/07/12 01:38:48;;;;;;;4.43;4.07;;;25.00;56.00;;;;;;5007282;28;20221;-66
2021/07/12 01:41:49;;;;;;;4.37;4.03;;;25.00;56.00;;;;;;4997423;28;20201;-66
2021/07/12 01:45:00;;;;;;;4.17;3.63;;;25.00;56.10;;;;;;5005640;28;20218;-66
2021/07/12 01:48:07;;;;;;;3.83;3.53;;;25.00;56.10;;;;;;5005512;28;20210;-67
2021/07/12 01:50:58;;;;;;;4.43;4.07;;;25.00;56.10;;;;;;5008022;28;20813;-66
2021/07/12 01:53:56;;;;;;;4.20;3.90;;;25.00;56.10;;;;;;5005864;28;20204;-66
2021/07/12 01:56:44;;;;;;;4.20;3.77;;;24.90;56.10;;;;;;4999839;28;20238;-67
2021/07/12 01:59:23;;;;;;;4.53;4.23;;;25.00;56.10;;;;;;5009772;28;20216;-66
2021/07/12 02:01:54;;;;;;;5.40;3.93;;;25.00;56.10;;;;;;5002665;28;20232;-66
2021/07/12 02:04:30;;;;;;;5.93;4.33;;;25.00;56.00;;;;;;5001300;28;20559;-66
2021/07/12 02:06:59;;;;;;;4.13;3.83;;;25.00;56.00;;;;;;5003746;28;20228;-66
2021/07/12 02:09:30;;;;;;;4.73;4.33;;;25.00;56.00;;;;;;5008145;28;20258;-67
2021/07/12 02:12:00;;;;;;;6.07;3.90;;;25.00;56.00;;;;;;5007163;28;20861;-66
2021/07/12 02:14:29;;;;;;;4.70;4.20;;;25.00;56.00;;;;;;5003515;28;20218;-67
2021/07/12 02:17:00;;;;;;;4.50;4.10;;;25.00;56.00;;;;;;5008862;28;20232;-66
2021/07/12 02:19:29;;;;;;;4.20;3.80;;;24.90;55.90;;;;;;4998216;28;20805;-66
2021/07/12 02:21:56;;;;;;;4.40;4.00;;;24.90;55.90;;;;;;5002738;28;20703;-67
2021/07/12 02:24:26;;;;;;;4.50;4.10;;;25.00;56.00;;;;;;5003728;28;20217;-67
2021/07/12 02:26:55;;;;;;;4.40;4.00;;;25.00;56.00;;;;;;5002604;28;20212;-66
2021/07/12 02:29:23;;;;;;;4.20;3.80;;;24.90;55.90;;;;;;5005051;28;20228;-67
2021/07/12 02:31:51;;;;;;;7.97;4.00;;;24.90;55.90;;;;;;5008241;28;20221;-66
2021/07/12 02:34:19;;;;;;;4.10;3.77;;;24.90;55.90;;;;;;5016740;28;20259;-66
2021/07/12 02:36:50;;;;;;;4.67;4.27;;;24.90;55.90;;;;;;5012934;28;20200;-66
2021/07/12 02:39:17;;;;;;;4.30;3.90;;;24.90;55.90;;;;;;5011487;28;20216;-66
2021/07/12 02:41:55;;;;;;;4.50;4.10;;;24.90;55.90;;;;;;5017395;28;20292;-66
2021/07/12 02:44:22;;;;;;;4.40;4.00;;;24.90;55.90;;;;;;5021333;28;20231;-66
2021/07/12 02:46:49;;;;;;;3.90;3.60;;;24.90;55.90;;;;;;5009129;28;20213;-66
2021/07/12 02:49:16;;;;;;;5.47;4.13;;;24.90;55.90;;;;;;5020788;28;20242;-66
2021/07/12 02:51:49;;;;;;;4.20;3.80;;;24.90;55.90;;;;;;5019521;28;20210;-66
2021/07/12 02:54:20;;;;;;;4.47;4.17;;;24.90;55.90;;;;;;5016778;28;20209;-66
2021/07/12 02:56:47;;;;;;;4.70;4.03;;;24.90;55.90;;;;;;5008235;28;20210;-66
2021/07/12 02:59:14;;;;;;;4.30;4.00;;;24.80;55.90;;;;;;5015110;28;20227;-66
2021/07/12 03:01:41;;;;;;;3.80;3.50;;;24.80;55.80;;;;;;5014809;28;20229;-66
2021/07/12 03:04:08;;;;;;;4.17;3.80;;;24.90;55.90;;;;;;5016780;28;21734;-66
2021/07/12 03:06:35;;;;;;;4.33;3.93;;;24.80;55.90;;;;;;5014233;28;20227;-66
2021/07/12 03:09:10;;;;;;;3.97;3.63;;;24.90;55.90;;;;;;5018722;28;20323;-66
2021/07/12 03:11:46;;;;;;;4.50;4.10;;;24.90;55.90;;;;;;5018960;28;20655;-65
2021/07/12 03:14:19;;;;;;;4.20;3.90;;;24.90;55.80;;;;;;5009921;28;20529;-66
2021/07/12 03:16:49;;;;;;;4.30;3.90;;;24.80;55.80;;;;;;5009488;28;20224;-66
2021/07/12 03:19:23;;;;;;;5.17;3.87;;;24.80;55.90;;;;;;5014640;28;20242;-66
2021/07/12 03:21:52;;;;;;;5.10;3.90;;;24.80;55.90;;;;;;5013106;28;20195;-66
2021/07/12 03:24:20;;;;;;;4.00;3.70;;;24.80;55.80;;;;;;5009424;28;20202;-66
2021/07/12 03:26:52;;;;;;;4.37;3.97;;;24.80;55.90;;;;;;5012918;28;20553;-66
2021/07/12 03:29:20;;;;;;;4.93;4.27;;;24.80;55.90;;;;;;5005977;28;20244;-66
2021/07/12 03:31:47;;;;;;;4.20;3.90;;;24.80;55.90;;;;;;5012168;28;20214;-66
2021/07/12 03:34:17;;;;;;;5.07;4.13;;;24.80;55.90;;;;;;5006677;28;20204;-66
2021/07/12 03:36:46;;;;;;;4.50;4.10;;;24.80;55.90;;;;;;5012082;28;20203;-66
2021/07/12 03:39:13;;;;;;;4.90;4.50;;;24.80;55.90;;;;;;5013236;28;20628;-66
2021/07/12 03:41:40;;;;;;;4.90;4.50;;;24.80;55.90;;;;;;5011303;28;20222;-66
2021/07/12 03:44:07;;;;;;;4.40;4.10;;;24.80;55.90;;;;;;5009573;28;20247;-67
2021/07/12 03:46:40;;;;;;;4.30;4.00;;;24.80;55.80;;;;;;5012259;28;20207;-67
2021/07/12 03:49:12;;;;;;;4.60;3.97;;;24.70;55.70;;;;;;5004757;28;20241;-66
2021/07/12 03:51:40;;;;;;;4.40;3.93;;;24.80;55.80;;;;;;5012256;28;20210;-66
2021/07/12 03:54:07;;;;;;;5.10;4.60;;;24.70;55.80;;;;;;5011285;28;20546;-66
2021/07/12 03:56:35;;;;;;;4.90;4.30;;;24.70;55.80;;;;;;5012209;28;20220;-66
2021/07/12 03:59:01;;;;;;;4.60;4.20;;;24.70;55.80;;;;;;5009156;28;20210;-66
2021/07/12 04:01:28;;;;;;;4.93;4.50;;;24.70;55.80;;;;;;5002066;28;20205;-66
2021/07/12 04:03:56;;;;;;;5.90;4.30;;;24.70;55.80;;;;;;5009781;28;20212;-66
2021/07/12 04:06:24;;;;;;;5.50;4.20;;;24.70;56.40;;;;;;5009821;28;20294;-66
2021/07/12 04:08:53;;;;;;;5.40;4.90;;;24.70;55.80;;;;;;5009477;28;20227;-66
2021/07/12 04:11:29;;;;;;;5.53;5.03;;;24.70;55.80;;;;;;5016190;28;20213;-66
2021/07/12 04:13:57;;;;;;;5.13;4.73;;;24.70;55.80;;;;;;5010148;28;20587;-67
2021/07/12 04:16:24;;;;;;;5.20;4.70;;;24.70;55.80;;;;;;4996112;28;20196;-66
2021/07/12 04:18:53;;;;;;;7.43;5.13;;;24.70;55.80;;;;;;5009742;28;20700;-66
2021/07/12 04:21:20;;;;;;;5.10;4.70;;;24.70;55.80;;;;;;5012916;28;20207;-66
2021/07/12 04:23:48;;;;;;;5.70;5.20;;;24.70;55.80;;;;;;5010987;28;20214;-66
2021/07/12 04:26:16;;;;;;;6.43;5.07;;;24.70;55.80;;;;;;5007188;28;20207;-66
2021/07/12 04:28:43;;;;;;;7.50;4.97;;;24.70;55.80;;;;;;5007479;28;20708;-66
2021/07/12 04:31:13;;;;;;;5.50;5.00;;;24.70;55.80;;;;;;5004505;28;20244;-65
2021/07/12 04:33:41;;;;;;;7.90;5.37;;;24.70;55.80;;;;;;5005014;28;20255;-66
2021/07/12 04:36:11;;;;;;;5.50;4.80;;;24.70;55.80;;;;;;4999800;28;20589;-68
2021/07/12 04:38:40;;;;;;;5.90;5.40;;;24.70;55.80;;;;;;5009012;28;20224;-67
2021/07/12 04:41:09;;;;;;;5.70;5.30;;;24.60;56.00;;;;;;5003902;28;20214;-69
2021/07/12 04:43:37;;;;;;;5.50;5.10;;;24.70;56.00;;;;;;5009602;28;20205;-69
2021/07/12 04:46:04;;;;;;;6.13;5.33;;;24.70;55.90;;;;;;5011811;28;20250;-68
2021/07/12 04:48:32;;;;;;;6.10;5.40;;;24.70;55.80;;;;;;5012523;28;20226;-67
2021/07/12 04:50:59;;;;;;;6.27;5.67;;;24.80;55.90;;;;;;5007754;28;20215;-68
2021/07/12 04:53:29;;;;;;;6.53;5.93;;;24.80;55.80;;;;;;5008932;28;20212;-68
2021/07/12 04:55:59;;;;;;;6.77;6.20;;;24.80;55.70;;;;;;5006305;28;20283;-70
2021/07/12 04:58:31;;;;;;;6.23;5.67;;;24.90;55.70;;;;;;5008677;28;20208;-68
2021/07/12 05:00:59;;;;;;;6.57;5.97;;;24.90;55.60;;;;;;5003985;28;20215;-67
2021/07/12 05:03:31;;;;;;;8.13;6.13;;;24.90;55.60;;;;;;5012210;28;20561;-69
2021/07/12 05:05:59;;;;;;;6.90;6.23;;;25.00;55.50;;;;;;4998134;28;20213;-71
2021/07/12 05:08:27;;;;;;;7.23;6.63;;;25.00;55.40;;;;;;5006202;28;20604;-71
2021/07/12 05:10:56;;;;;;;7.10;6.40;;;25.00;55.30;;;;;;5004774;28;20214;-69
2021/07/12 05:13:23;;;;;;;9.23;6.53;;;25.00;55.40;;;;;;5006144;28;20204;-69
2021/07/12 05:15:49;;;;;;;7.00;6.40;;;25.00;55.40;;;;;;5007051;28;20194;-67
2021/07/12 05:18:18;;;;;;;7.53;6.83;;;25.00;55.80;;;;;;4999216;28;20968;-67
2021/07/12 05:20:47;;;;;;;8.30;7.60;;;25.00;55.80;;;;;;5008277;28;20227;-67
2021/07/12 05:23:14;;;;;;;7.77;7.03;;;25.00;55.80;;;;;;5007933;28;20603;-67
2021/07/12 05:25:43;;;;;;;9.40;8.30;;;25.00;56.30;;;;;;5007040;28;20220;-67
2021/07/12 05:28:10;;;;;;;9.50;8.50;;;25.00;56.40;;;;;;5007669;28;20633;-67
2021/07/12 05:30:39;;;;;;;9.67;8.77;;;25.00;56.30;;;;;;5007848;28;20835;-67
2021/07/12 05:33:07;;;;;;;9.73;8.90;;;25.00;56.20;;;;;;4992744;28;20200;-67
2021/07/12 05:35:33;;;;;;;10.50;9.37;;;25.00;56.20;;;;;;5006657;28;20323;-67
2021/07/12 05:38:00;;;;;;;9.87;8.97;;;25.00;56.10;;;;;;5014342;28;20470;-68
2021/07/12 05:40:27;;;;;;;8.80;7.90;;;25.00;56.10;;;;;;5006811;28;20220;-68
2021/07/12 05:42:55;;;;;;;8.80;8.07;;;24.90;56.00;;;;;;5010575;28;20230;-68
2021/07/12 05:45:22;;;;;;;8.47;7.67;;;24.90;56.10;;;;;;5009434;28;20211;-67
2021/07/12 05:47:48;;;;;;;9.63;7.27;;;24.90;56.10;;;;;;5005123;28;20613;-67
2021/07/12 05:50:15;;;;;;;8.43;7.73;;;24.90;56.20;;;;;;5007928;28;20698;-68
2021/07/12 05:52:42;;;;;;;8.23;7.43;;;24.90;56.10;;;;;;5008184;28;20232;-69
2021/07/12 05:55:10;;;;;;;8.30;7.30;;;25.00;56.20;;;;;;5008422;28;20210;-69
2021/07/12 05:57:37;;;;;;;8.87;6.83;;;24.90;56.10;;;;;;5015317;28;20222;-70
2021/07/12 06:00:06;;;;;;;7.87;7.23;;;24.90;56.10;;;;;;5012451;28;20226;-70
2021/07/12 06:02:33;;;;;;;8.10;7.30;;;24.90;56.10;;;;;;5021821;28;20218;-69
2021/07/12 06:05:00;;;;;;;8.40;7.60;;;24.90;56.10;;;;;;5006016;28;20209;-69
2021/07/12 06:07:26;;;;;;;8.57;7.77;;;24.90;56.20;;;;;;5001324;28;20221;-65
2021/07/12 06:09:53;;;;;;;7.27;6.60;;;24.90;56.20;;;;;;5004914;28;20714;-68
2021/07/12 06:12:20;;;;;;;12.55;7.32;;;24.90;56.70;;;;;;5002505;28;20443;-70
2021/07/12 06:14:47;;;;;;;23.80;10.03;;;25.00;56.60;;;;;;5009183;28;20210;-71
2021/07/12 06:17:13;;;;;;;20.50;9.50;;;25.00;57.70;;;;;;5009100;28;20207;-71
2021/07/12 06:19:43;;;;;;;15.97;8.83;;;25.00;57.60;;;;;;5011733;28;20223;-70
2021/07/12 06:22:10;;;;;;;13.70;8.63;;;25.10;57.80;;;;;;5002790;28;20214;-71
2021/07/12 06:24:37;;;;;;;11.37;7.33;;;25.10;56.90;;;;;;5011993;28;20216;-69
2021/07/12 06:27:04;;;;;;;12.60;8.20;;;25.20;57.00;;;;;;5012060;28;20223;-74
2021/07/12 06:29:31;;;;;;;10.03;8.10;;;25.20;56.90;;;;;;4994458;28;20228;-72
2021/07/12 06:31:59;;;;;;;8.83;7.63;;;25.30;56.60;;;;;;5006878;28;20205;-71
2021/07/12 06:34:27;;;;;;;8.33;7.53;;;25.30;56.40;;;;;;5007431;28;20218;-71
2021/07/12 06:36:56;;;;;;;8.33;7.33;;;25.30;56.50;;;;;;5011921;28;20219;-72
2021/07/12 06:39:24;;;;;;;8.60;6.80;;;25.30;57.60;;;;;;5013942;28;20826;-71
2021/07/12 06:41:51;;;;;;;8.70;7.93;;;25.40;57.10;;;;;;5006431;28;20748;-69
2021/07/12 06:44:17;;;;;;;8.17;7.37;;;25.40;56.90;;;;;;5009804;28;20216;-70
2021/07/12 06:46:46;;;;;;;8.50;6.77;;;25.50;57.30;;;;;;5012832;28;20679;-70
2021/07/12 06:49:13;;;;;;;7.60;6.90;;;25.50;56.90;;;;;;5006569;28;20247;-70
2021/07/12 06:51:41;;;;;;;7.30;6.70;;;25.60;57.00;;;;;;5010781;28;20219;-68
2021/07/12 06:54:08;;;;;;;6.53;5.90;;;25.70;56.70;;;;;;4997414;28;20206;-70
2021/07/12 06:56:35;;;;;;;7.00;6.30;;;25.70;56.90;;;;;;5007850;28;20210;-71
2021/07/12 06:59:03;;;;;;;9.93;6.10;;;25.70;57.30;;;;;;5012236;28;20223;-71
2021/07/12 07:01:30;;;;;;;13.37;6.37;;;25.70;57.90;;;;;;5010307;28;20783;-72
2021/07/12 07:03:58;;;;;;;6.40;4.93;;;25.70;59.20;;;;;;5002879;28;20228;-72
2021/07/12 07:06:26;;;;;;;5.80;5.20;;;25.80;59.00;;;;;;5008579;28;20224;-71
2021/07/12 07:08:53;;;;;;;5.27;4.77;;;25.80;57.90;;;;;;5008198;28;20223;-72
2021/07/12 07:11:21;;;;;;;5.60;4.43;;;25.80;56.90;;;;;;5005899;28;20672;-70
2021/07/12 07:13:49;;;;;;;5.43;4.67;;;25.90;56.80;;;;;;4990195;28;20217;-69
2021/07/12 07:16:17;;;;;;;4.40;3.93;;;25.90;56.50;;;;;;5008501;28;20220;-69
2021/07/12 07:18:43;;;;;;;5.73;4.60;;;25.80;56.40;;;;;;5011397;28;20227;-70
2021/07/12 07:21:12;;;;;;;4.53;3.70;;;25.90;57.10;;;;;;5008337;28;20219;-68
2021/07/12 07:23:39;;;;;;;4.40;3.93;;;26.00;56.70;;;;;;5009565;28;20204;-74
2021/07/12 07:26:07;;;;;;;4.53;4.13;;;26.00;56.40;;;;;;5005604;28;20223;-70
2021/07/12 07:28:34;;;;;;;4.70;4.30;;;26.00;56.30;;;;;;5002665;28;20208;-69
2021/07/12 07:31:01;;;;;;;4.43;4.00;;;26.10;56.30;;;;;;5007171;28;20227;-71
2021/07/12 07:33:29;;;;;;;4.10;3.70;;;26.10;56.10;;;;;;5012791;28;20242;-72
2021/07/12 07:35:57;;;;;;;3.83;3.53;;;26.10;56.10;;;;;;5010652;28;20516;-71
2021/07/12 07:38:26;;;;;;;4.37;3.30;;;26.20;56.00;;;;;;5010660;28;20199;-71
2021/07/12 07:40:53;;;;;;;3.70;3.40;;;26.20;55.90;;;;;;5011390;28;20208;-70
2021/07/12 07:43:20;;;;;;;4.93;3.63;;;26.20;56.40;;;;;;5001806;28;20210;-71
2021/07/12 07:45:47;;;;;;;3.60;3.27;;;26.30;55.60;;;;;;5010689;28;20866;-68
2021/07/12 07:48:15;;;;;;;4.40;3.23;;;26.30;55.40;;;;;;5011845;28;20238;-68
2021/07/12 07:50:46;;;;;;;3.70;3.40;;;26.30;55.30;;;;;;5009411;28;20223;-68
2021/07/12 07:53:15;;;;;;;3.53;3.23;;;26.40;55.20;;;;;;5004188;28;20215;-68
2021/07/12 07:55:44;;;;;;;4.40;3.60;;;26.40;55.10;;;;;;5010131;28;20247;-67
2021/07/12 07:58:12;;;;;;;3.57;3.27;;;26.40;55.10;;;;;;5012694;28;20217;-68
2021/07/12 08:00:40;;;;;;;3.40;3.10;;;26.40;54.90;;;;;;5009010;28;20218;-67
2021/07/12 08:03:09;;;;;;;3.40;3.10;;;26.40;54.90;;;;;;4997813;28;20709;-69
2021/07/12 08:05:36;;;;;;;6.07;3.20;;;26.50;54.70;;;;;;5002609;28;20214;-71
2021/07/12 08:08:03;;;;;;;3.53;3.20;;;26.50;55.20;;;;;;5003598;28;20222;-70
2021/07/12 08:10:30;;;;;;;3.00;2.80;;;26.60;55.10;;;;;;5007439;28;20240;-70
2021/07/12 08:12:58;;;;;;;5.70;3.33;;;26.60;54.30;;;;;;5012834;28;20628;-68
2021/07/12 08:15:25;;;;;;;2.87;2.67;;;26.60;54.70;;;;;;5014190;28;20227;-69
2021/07/12 08:17:54;;;;;;;6.00;3.03;;;26.50;54.80;;;;;;5009330;28;20212;-68
2021/07/12 08:20:21;;;;;;;4.30;3.70;;;26.50;56.70;;;;;;5000083;28;20241;-70
2021/07/12 08:22:52;;;;;;;7.00;3.50;;;26.50;58.40;;;;;;5017020;28;20216;-74
2021/07/12 08:25:21;;;;;;;4.27;3.57;;;26.50;57.50;;;;;;5015908;28;20659;-73
2021/07/12 08:27:48;;;;;;;3.30;3.00;;;26.50;57.90;;;;;;5016583;28;20255;-71
2021/07/12 08:30:16;;;;;;;4.70;3.10;;;26.50;58.30;;;;;;5015470;28;20229;-73
2021/07/12 08:32:44;;;;;;;3.50;3.20;;;26.50;58.00;;;;;;5018206;28;20733;-67
2021/07/12 08:35:13;;;;;;;3.37;3.07;;;26.50;58.10;;;;;;5015022;28;20205;-69
2021/07/12 08:37:41;;;;;;;3.20;2.80;;;26.50;58.80;;;;;;5020378;28;20210;-70
2021/07/12 08:40:10;;;;;;;3.40;3.10;;;26.50;58.80;;;;;;5021342;28;20222;-71
2021/07/12 08:42:39;;;;;;;5.17;3.17;;;26.50;58.70;;;;;;5010619;28;20574;-73
2021/07/12 08:45:07;;;;;;;3.33;3.13;;;26.50;58.40;;;;;;5010062;28;20226;-69
2021/07/12 08:47:34;;;;;;;2.77;2.57;;;26.50;57.40;;;;;;5002240;28;20216;-69
2021/07/12 08:50:01;;;;;;;2.77;2.57;;;26.50;58.10;;;;;;5010736;28;20248;-70
2021/07/12 08:52:28;;;;;;;3.43;2.77;;;26.70;58.00;;;;;;4993454;28;20232;-64
2021/07/12 08:54:57;;;;;;;3.23;2.60;;;26.70;57.60;;;;;;5007472;28;20214;-68
2021/07/12 08:57:24;;;;;;;4.27;2.83;;;26.80;58.10;;;;;;5013704;28;20216;-69
2021/07/12 08:59:54;;;;;;;2.60;2.40;;;27.00;58.50;;;;;;5009437;28;20223;-67
2021/07/12 09:02:26;;;;;;;2.63;2.43;;;27.10;57.50;;;;;;5010680;28;20216;-66
2021/07/12 09:04:54;;;;;;;2.83;2.63;;;27.10;57.10;;;;;;5003140;28;20451;-67
2021/07/12 09:07:26;;;;;;;2.40;2.20;;;27.20;57.40;;;;;;5008684;28;20204;-67
2021/07/12 09:10:13;;;;;;;2.13;1.93;;;27.30;56.70;;;;;;5008803;28;20218;-68
2021/07/12 09:12:48;;;;;;;2.40;2.20;;;27.40;56.60;;;;;;5001150;28;20225;-67
2021/07/12 09:15:17;;;;;;;2.40;2.20;;;27.40;56.40;;;;;;5010374;28;20213;-69
2021/07/12 09:17:49;;;;;;;2.87;2.60;;;27.50;56.10;;;;;;5006437;28;20232;-68
2021/07/12 09:20:29;;;;;;;3.47;2.20;;;27.50;56.00;;;;;;5008939;28;20252;-67
2021/07/12 09:22:59;;;;;;;2.63;2.43;;;27.60;55.90;;;;;;5004457;28;20244;-69
2021/07/12 09:25:30;;;;;;;2.33;2.20;;;27.70;55.70;;;;;;5010264;28;20226;-67
2021/07/12 09:27:57;;;;;;;2.60;2.40;;;27.80;55.90;;;;;;5005380;28;20212;-67
2021/07/12 09:30:25;;;;;;;3.23;2.67;;;27.80;55.90;;;;;;5009429;28;20234;-64
2021/07/12 09:32:53;;;;;;;2.40;2.20;;;27.80;55.90;;;;;;5007603;28;20217;-65
2021/07/12 09:35:22;;;;;;;3.20;2.40;;;27.90;55.50;;;;;;5009630;28;20194;-71
2021/07/12 09:38:00;;;;;;;2.20;2.00;;;27.90;55.10;;;;;;4992050;28;20224;-68
2021/07/12 09:40:30;;;;;;;2.47;2.27;;;27.90;55.00;;;;;;4995911;28;20844;-67
2021/07/12 09:42:57;;;;;;;2.50;2.30;;;28.00;54.90;;;;;;5008422;28;20231;-67
2021/07/12 09:45:28;;;;;;;2.70;2.50;;;28.00;54.80;;;;;;5007562;28;20583;-65
2021/07/12 09:48:06;;;;;;;3.33;2.17;;;28.00;54.60;;;;;;5000265;28;20274;-67
2021/07/12 09:50:33;;;;;;;2.60;2.40;;;28.10;54.10;;;;;;5010439;28;20253;-65
2021/07/12 09:53:04;;;;;;;2.53;2.37;;;28.10;53.80;;;;;;5008422;28;20224;-65
2021/07/12 09:55:41;;;;;;;3.23;2.33;;;28.20;53.70;;;;;;5005492;28;20217;-65
2021/07/12 09:58:17;;;;;;;2.60;2.40;;;28.20;53.50;;;;;;5006020;28;20219;-65
2021/07/12 10:00:46;;;;;;;3.17;2.30;;;28.10;53.50;;;;;;5006567;28;20219;-64
2021/07/12 10:03:17;;;;;;;2.67;2.43;;;28.10;53.20;;;;;;5006500;28;20208;-63
2021/07/12 10:05:46;;;;;;;2.77;2.37;;;28.10;54.30;;;;;;5009640;28;20259;-63
2021/07/12 10:08:13;;;;;;;3.63;2.27;;;28.10;53.90;;;;;;4992063;28;20208;-63
2021/07/12 10:10:40;;;;;;;2.37;2.17;;;28.00;53.20;;;;;;5007624;28;20244;-64
2021/07/12 10:13:07;;;;;;;2.97;2.67;;;28.00;52.70;;;;;;5007061;28;20220;-63
2021/07/12 10:15:35;;;;;;;2.93;2.30;;;28.00;52.60;;;;;;5003963;28;20211;-64
2021/07/12 10:18:03;;;;;;;2.57;2.23;;;28.00;52.70;;;;;;5004710;28;20206;-63
2021/07/12 10:20:33;;;;;;;2.60;2.40;;;28.00;52.90;;;;;;5005804;28;20232;-63
2021/07/12 10:23:03;;;;;;;2.80;2.60;;;28.00;52.50;;;;;;5005744;28;20264;-64
2021/07/12 10:25:32;;;;;;;2.60;2.40;;;28.00;52.50;;;;;;5006393;28;20207;-62
2021/07/12 10:28:03;;;;;;;3.75;2.58;;;27.90;52.30;;;;;;5007658;28;20493;-67
2021/07/12 10:30:43;;;;;;;2.67;2.43;;;27.90;51.40;;;;;;4993699;28;20242;-65
2021/07/12 10:33:12;;;;;;;2.70;2.50;;;27.70;48.00;;;;;;5007587;28;20196;-65
2021/07/12 10:35:48;;;;;;;3.37;2.30;;;27.40;46.00;;;;;;5009464;28;20216;-66
2021/07/12 10:38:17;;;;;;;2.47;2.27;;;27.10;45.30;;;;;;5005990;28;20667;-64
2021/07/12 10:40:54;;;;;;;2.17;1.97;;;26.90;44.90;;;;;;5008788;28;20551;-66
2021/07/12 10:43:54;;;;;;;2.10;2.00;;;26.60;45.10;;;;;;5007155;28;20683;-63
2021/07/12 10:46:25;;;;;;;2.37;2.17;;;26.40;45.20;;;;;;5008788;28;20227;-66
2021/07/12 10:48:53;;;;;;;2.97;2.10;;;26.20;50.30;;;;;;5001137;28;20210;-66
2021/07/12 10:51:21;;;;;;;2.30;2.10;;;26.10;50.80;;;;;;5006963;28;20223;-66
2021/07/12 10:53:59;;;;;;;2.40;2.20;;;26.00;50.90;;;;;;5006170;28;20214;-65
2021/07/12 10:56:48;;;;;;;2.30;2.10;;;26.00;50.50;;;;;;5010232;28;20213;-66
2021/07/12 10:59:23;;;;;;;2.53;2.33;;;25.90;48.70;;;;;;5007122;28;20680;-65
2021/07/12 11:01:50;;;;;;;2.63;2.07;;;25.80;51.40;;;;;;4995736;28;20215;-64
2021/07/12 11:04:32;;;;;;;2.53;2.33;;;25.90;56.30;;;;;;5003066;28;20227;-65
2021/07/12 11:07:00;;;;;;;2.43;2.23;;;26.00;60.10;;;;;;4990769;28;20220;-63
2021/07/12 11:09:45;;;;;;;2.47;2.27;;;26.10;57.20;;;;;;5009655;28;20209;-65
2021/07/12 11:12:33;;;;;;;2.20;2.10;;;26.10;52.30;;;;;;5009902;28;20688;-66
2021/07/12 11:15:37;;;;;;;1.97;1.87;;;26.00;49.70;;;;;;5007764;28;20696;-67
2021/07/12 11:18:28;;;;;;;2.00;1.90;;;25.90;48.00;;;;;;5007664;28;20232;-67
2021/07/12 11:21:03;;;;;;;2.60;2.40;;;25.70;48.00;;;;;;5010355;28;20203;-65
2021/07/12 11:23:47;;;;;;;2.60;2.40;;;25.70;54.20;;;;;;4993084;28;20204;-66
2021/07/12 11:26:20;;;;;;;2.60;2.40;;;25.90;58.60;;;;;;5011411;28;20230;-68
2021/07/12 11:28:49;;;;;;;2.77;2.10;;;25.90;61.70;;;;;;5007255;28;20226;-67
2021/07/12 11:31:54;;;;;;;2.17;2.07;;;26.10;57.00;;;;;;5004511;28;20336;-65
2021/07/12 11:34:28;;;;;;;1.90;1.80;;;26.00;52.00;;;;;;5009777;28;20867;-65
2021/07/12 11:37:13;;;;;;;2.20;2.00;;;25.90;49.60;;;;;;5008127;28;20266;-68
2021/07/12 11:39:50;;;;;;;2.40;2.30;;;25.80;49.50;;;;;;5012103;28;20210;-68
2021/07/12 11:42:41;;;;;;;2.20;2.00;;;25.80;55.70;;;;;;5009078;28;20227;-67
2021/07/12 11:45:19;;;;;;;2.67;1.90;;;26.00;60.20;;;;;;5005079;28;20280;-65
2021/07/12 11:47:57;;;;;;;2.80;2.13;;;26.10;57.00;;;;;;5008432;28;20276;-65
2021/07/12 11:50:30;;;;;;;1.80;1.70;;;26.00;52.80;;;;;;5012559;28;20591;-65
2021/07/12 11:53:03;;;;;;;2.00;1.90;;;26.10;51.00;;;;;;5010333;28;20230;-64
2021/07/12 11:55:39;;;;;;;2.10;1.90;;;25.90;49.50;;;;;;5013450;28;20210;-65
2021/07/12 11:58:06;;;;;;;2.20;2.10;;;25.90;48.80;;;;;;5005823;28;20245;-65
2021/07/12 12:00:41;;;;;;;2.30;2.10;;;25.80;48.10;;;;;;5006067;28;20217;-62
2021/07/12 12:03:10;;;;;;;2.10;1.90;;;25.80;47.70;;;;;;5008483;28;20799;-67
2021/07/12 12:05:39;;;;;;;2.80;2.30;;;25.70;49.10;;;;;;5005510;28;20214;-65
2021/07/12 12:08:07;;;;;;;2.47;2.27;;;25.70;54.60;;;;;;4996960;28;20207;-65
2021/07/12 12:10:39;;;;;;;3.00;2.70;;;25.90;59.60;;;;;;4989457;28;20257;-64
2021/07/12 12:13:06;;;;;;;3.10;2.40;;;26.00;60.20;;;;;;5003692;28;20219;-65
2021/07/12 12:15:36;;;;;;;4.07;2.57;;;26.00;55.60;;;;;;5008429;28;20222;-64
2021/07/12 12:18:06;;;;;;;5.37;2.53;;;26.00;52.50;;;;;;5003951;28;20543;-65
2021/07/12 12:20:45;;;;;;;2.23;2.03;;;26.00;50.80;;;;;;4990455;28;20243;-65
2021/07/12 12:23:19;;;;;;;2.40;2.20;;;25.90;49.60;;;;;;5007204;28;20208;-64
2021/07/12 12:25:48;;;;;;;5.97;2.30;;;25.90;49.10;;;;;;5007921;28;20210;-65
2021/07/12 12:28:26;;;;;;;3.20;2.00;;;25.90;48.80;;;;;;5011099;28;20580;-66
2021/07/12 12:30:55;;;;;;;2.77;2.17;;;25.90;50.90;;;;;;5008251;28;20223;-63
2021/07/12 12:33:27;;;;;;;4.70;2.50;;;25.90;56.70;;;;;;5000490;28;20283;-64
2021/07/12 12:36:21;;;;;;;2.30;2.10;;;26.00;60.30;;;;;;5007328;28;20248;-65
2021/07/12 12:39:04;;;;;;;3.23;2.20;;;26.10;58.00;;;;;;5002005;28;20624;-65
2021/07/12 12:41:33;;;;;;;2.23;2.03;;;26.10;52.90;;;;;;5003817;28;20213;-65
2021/07/12 12:44:05;;;;;;;2.70;2.17;;;25.90;50.40;;;;;;4993433;28;20280;-66
2021/07/12 12:46:34;;;;;;;3.43;2.30;;;25.90;56.00;;;;;;4995648;28;20212;-67
2021/07/12 12:49:25;;;;;;;3.13;2.20;;;26.00;59.30;;;;;;5006459;28;20231;-66
2021/07/12 12:51:53;;;;;;;2.50;2.10;;;26.10;59.70;;;;;;5003419;28;20262;-65
2021/07/12 12:54:22;;;;;;;3.20;1.80;;;26.10;54.50;;;;;;5006622;28;20620;-64
2021/07/12 12:56:54;;;;;;;1.87;1.77;;;26.00;51.80;;;;;;5002610;28;20700;-64
2021/07/12 12:59:38;;;;;;;2.70;2.17;;;25.90;53.10;;;;;;5003246;28;20203;-63
2021/07/12 13:02:12;;;;;;;2.83;2.30;;;25.90;58.10;;;;;;5011178;28;20202;-65
2021/07/12 13:04:56;;;;;;;4.40;2.30;;;26.00;61.50;;;;;;5009104;28;20850;-65
2021/07/12 13:07:27;;;;;;;2.20;2.00;;;26.10;56.10;;;;;;4992991;28;20222;-65